Time;durP1;ratioP1;P1;durP2;ratioP2;P2;SDS_P1;SDS_P2;PMS_P1;PMS_P2;Temp;Humidity;BMP_temperature;BMP_pressure;BME280_temperature;BME280_humidity;BME280_pressure;Samples;Min_cycle;Max_cycle;Signal;HPM_P1;HPM_P2
2021/06/04 00:04:16;;;;;;;7.18;4.97;;;;;;;17.44;100.00;100688.03;20902136;28;20045;-72
2021/06/04 00:14:23;;;;;;;10.18;5.25;;;;;;;17.20;100.00;100684.66;20823800;28;20561;-73
2021/06/04 00:24:25;;;;;;;6.88;5.30;;;;;;;17.09;100.00;100688.09;20869160;28;20052;-73
2021/06/04 00:34:27;;;;;;;8.23;6.15;;;;;;;17.09;100.00;100683.66;20914714;28;20051;-73
2021/06/04 00:44:29;;;;;;;8.20;6.00;;;;;;;17.08;100.00;100686.41;20913944;28;20388;-72
2021/06/04 00:54:31;;;;;;;7.25;5.60;;;;;;;16.83;100.00;100679.50;20904994;28;20048;-72
2021/06/04 01:04:34;;;;;;;8.75;5.65;;;;;;;16.77;100.00;100687.91;20912095;28;20132;-72
2021/06/04 01:15:10;;;;;;;8.05;5.82;;;;;;;16.77;100.00;100687.91;20911844;28;20053;-72
2021/06/04 01:25:36;;;;;;;8.07;5.47;;;;;;;16.68;100.00;100688.59;20902927;28;20068;-72
2021/06/04 01:35:43;;;;;;;7.15;5.47;;;;;;;16.59;100.00;100700.72;20909510;28;20110;-72
2021/06/04 01:45:51;;;;;;;10.95;6.07;;;;;;;16.44;100.00;100695.69;20910142;28;20041;-72
2021/06/04 01:56:15;;;;;;;10.35;5.90;;;;;;;16.36;100.00;100698.03;20900419;28;20052;-72
2021/06/04 02:06:21;;;;;;;7.90;5.57;;;;;;;16.19;100.00;100697.50;20907337;28;20091;-72
2021/06/04 02:16:23;;;;;;;7.40;5.20;;;;;;;16.05;100.00;100705.53;20907266;28;20061;-72
2021/06/04 02:26:44;;;;;;;9.05;5.45;;;;;;;16.03;100.00;100707.47;20898132;28;20482;-72
2021/06/04 02:36:58;;;;;;;8.35;5.68;;;;;;;16.13;100.00;100707.66;20905247;28;20067;-72
2021/06/04 02:47:07;;;;;;;8.38;6.20;;;;;;;16.27;100.00;100707.47;20904020;28;20119;-72
2021/06/04 02:57:13;;;;;;;8.13;5.40;;;;;;;16.30;100.00;100712.56;20895642;28;20396;-72
2021/06/04 03:07:24;;;;;;;8.98;6.70;;;;;;;16.37;100.00;100703.22;20903283;28;20060;-72
2021/06/04 03:17:29;;;;;;;7.88;6.03;;;;;;;16.35;100.00;100714.84;20905695;28;20704;-73
2021/06/04 03:27:31;;;;;;;10.15;6.78;;;;;;;16.40;100.00;100725.94;20894193;28;20127;-73
2021/06/04 03:37:36;;;;;;;11.05;7.95;;;;;;;16.36;100.00;100733.22;20901715;28;20575;-72
2021/06/04 03:47:37;;;;;;;9.50;7.70;;;;;;;16.44;100.00;100753.81;20902089;28;20049;-72
2021/06/04 03:57:40;;;;;;;9.02;6.78;;;;;;;16.74;100.00;100756.03;20891096;28;20045;-73
2021/06/04 04:07:42;;;;;;;9.23;7.80;;;;;;;16.59;100.00;100758.00;20902800;28;20040;-71
2021/06/04 04:17:46;;;;;;;12.48;8.90;;;;;;;16.42;100.00;100753.06;20918116;28;20406;-71
2021/06/04 04:27:48;;;;;;;12.60;9.93;;;;;;;16.35;100.00;100760.63;20907783;28;20483;-72
2021/06/04 04:37:50;;;;;;;12.27;9.68;;;;;;;16.47;100.00;100774.72;20915162;28;20041;-72
2021/06/04 04:47:52;;;;;;;13.15;9.57;;;;;;;16.63;100.00;100773.53;20914126;28;20106;-72
2021/06/04 04:57:54;;;;;;;13.68;11.05;;;;;;;16.64;100.00;100777.03;20905640;28;20052;-71
2021/06/04 05:07:56;;;;;;;15.88;12.40;;;;;;;16.82;100.00;100764.22;20911899;28;20052;-72
2021/06/04 05:17:58;;;;;;;24.63;14.73;;;;;;;16.72;100.00;100744.72;20912042;28;20076;-71
2021/06/04 05:28:03;;;;;;;19.15;14.82;;;;;;;16.78;100.00;100773.34;20902705;28;20045;-71
2021/06/04 05:38:05;;;;;;;16.73;12.60;;;;;;;16.86;100.00;100765.72;20909774;28;20052;-70
2021/06/04 05:48:08;;;;;;;19.77;14.45;;;;;;;16.88;100.00;100769.91;20909604;28;20415;-70
2021/06/04 05:58:14;;;;;;;18.13;14.10;;;;;;;17.05;100.00;100782.72;20908772;28;20465;-70
2021/06/04 06:08:16;;;;;;;18.73;14.40;;;;;;;17.26;100.00;100784.72;20906539;28;20499;-70
2021/06/04 06:18:21;;;;;;;20.73;16.27;;;;;;;17.45;100.00;100799.06;20906781;28;20086;-69
2021/06/04 06:28:27;;;;;;;20.90;15.90;;;;;;;17.60;100.00;100809.47;20840196;28;20107;-69
2021/06/04 06:38:30;;;;;;;20.80;15.77;;;;;;;17.84;100.00;100818.16;20824317;28;20500;-69
2021/06/04 06:48:33;;;;;;;18.52;15.60;;;;;;;18.19;100.00;100820.69;20823465;28;20045;-69
2021/06/04 06:58:35;;;;;;;21.95;17.30;;;;;;;18.55;100.00;100841.66;20826974;28;20049;-69
2021/06/04 07:08:37;;;;;;;22.23;17.75;;;;;;;18.88;100.00;100837.25;20875552;28;20080;-70
2021/06/04 07:18:39;;;;;;;24.88;18.38;;;;;;;19.00;100.00;100841.50;20903472;28;20114;-69
2021/06/04 07:28:43;;;;;;;24.38;18.35;;;;;;;19.36;100.00;100851.75;20876132;28;20091;-69
2021/06/04 07:38:45;;;;;;;24.60;16.63;;;;;;;19.74;100.00;100851.22;20846786;28;20368;-69
2021/06/04 07:48:47;;;;;;;26.40;20.38;;;;;;;20.29;95.91;100865.88;20906070;28;20045;-70
2021/06/04 07:58:53;;;;;;;17.80;15.15;;;;;;;20.73;94.81;100850.50;20920944;28;20049;-72
2021/06/04 08:08:56;;;;;;;18.58;14.43;;;;;;;20.89;92.97;100850.81;20928814;28;20075;-71
2021/06/04 08:18:58;;;;;;;22.80;16.83;;;;;;;20.38;100.00;100856.28;20906806;28;20094;-71
2021/06/04 08:29:02;;;;;;;26.55;16.95;;;;;;;20.57;99.08;100848.34;20920898;28;20044;-72
2021/06/04 08:39:10;;;;;;;21.30;17.00;;;;;;;20.81;99.13;100840.03;20923910;28;20053;-71
2021/06/04 08:49:28;;;;;;;21.52;16.58;;;;;;;21.49;91.22;100846.19;20914872;28;20045;-71
2021/06/04 08:59:32;;;;;;;15.45;13.20;;;;;;;22.49;89.79;100836.66;20839311;28;20045;-73
2021/06/04 09:09:40;;;;;;;15.27;12.20;;;;;;;22.98;85.32;100836.19;20830698;28;20087;-72
2021/06/04 09:20:05;;;;;;;11.50;9.77;;;;;;;23.17;79.93;100834.34;20862943;28;20546;-72
2021/06/04 09:30:22;;;;;;;10.77;7.97;;;;;;;23.68;75.74;100821.09;20904786;28;20041;-73
2021/06/04 09:40:30;;;;;;;10.65;7.43;;;;;;;23.57;74.61;100818.66;20911610;28;20465;-73
2021/06/04 09:50:42;;;;;;;13.38;9.07;;;;;;;23.37;77.46;100812.66;20901355;28;20462;-73
2021/06/04 10:01:05;;;;;;;8.48;7.10;;;;;;;24.68;72.36;100799.84;20909465;22;20045;-73
2021/06/04 10:11:13;;;;;;;10.33;6.17;;;;;;;25.08;66.65;100792.88;20909914;28;20049;-73
2021/06/04 10:21:17;;;;;;;7.35;4.63;;;;;;;24.75;63.30;100781.25;20953643;28;20452;-73
2021/06/04 10:31:19;;;;;;;8.05;4.40;;;;;;;24.66;63.82;100768.84;20909220;28;20460;-73
2021/06/04 10:41:34;;;;;;;8.57;4.50;;;;;;;25.33;59.81;100757.03;20911399;28;20052;-73
2021/06/04 10:51:58;;;;;;;7.82;4.80;;;;;;;25.63;58.41;100752.78;20945344;28;20045;-73
2021/06/04 11:02:11;;;;;;;7.55;5.05;;;;;;;25.51;60.03;100754.97;20932501;28;20163;-73
2021/06/04 11:12:37;;;;;;;11.90;5.63;;;;;;;25.83;59.85;100729.94;20940810;28;20079;-73
2021/06/04 11:22:58;;;;;;;8.75;6.35;;;;;;;25.68;62.30;100704.00;20967013;28;20438;-73
2021/06/04 11:33:08;;;;;;;8.77;6.07;;;;;;;26.45;57.49;100691.56;20905710;28;20425;-74
2021/06/04 11:43:19;;;;;;;8.50;5.38;;;;;;;27.11;55.78;100686.31;20909025;28;20048;-73
2021/06/04 11:53:39;;;;;;;7.47;4.75;;;;;;;27.77;53.23;100684.59;20925963;28;20079;-72
2021/06/04 12:03:49;;;;;;;9.07;4.70;;;;;;;27.39;52.11;100665.00;20903318;28;20498;-73
2021/06/04 12:13:54;;;;;;;7.25;4.57;;;;;;;28.50;49.99;100652.09;20904124;28;20057;-73
2021/06/04 12:23:56;;;;;;;6.97;3.10;;;;;;;28.64;47.02;100642.28;20962502;28;20457;-73
2021/06/04 12:34:00;;;;;;;5.35;2.83;;;;;;;28.51;43.09;100644.84;20916607;28;20133;-74
2021/06/04 12:44:08;;;;;;;6.43;2.53;;;;;;;28.83;42.74;100640.78;20916412;28;20055;-73
2021/06/04 12:54:18;;;;;;;6.68;3.08;;;;;;;29.10;42.48;100642.66;20936197;28;20041;-73
2021/06/04 13:04:27;;;;;;;6.95;2.60;;;;;;;28.97;45.03;100631.75;20912846;28;20048;-73
2021/06/04 13:14:30;;;;;;;6.22;2.35;;;;;;;28.84;43.05;100651.38;20985254;28;20047;-73
2021/06/04 13:24:34;;;;;;;4.13;2.40;;;;;;;28.43;44.50;100653.06;20978836;28;20102;-73
2021/06/04 13:34:46;;;;;;;9.52;3.53;;;;;;;27.64;47.25;100657.50;20911949;28;20422;-73
2021/06/04 13:44:48;;;;;;;4.40;2.50;;;;;;;26.45;49.84;100636.00;20911628;28;20641;-74
2021/06/04 13:54:55;;;;;;;8.40;3.05;;;;;;;25.61;51.51;100630.63;20930714;28;20425;-73
2021/06/04 14:05:00;;;;;;;7.82;3.00;;;;;;;24.93;56.38;100625.81;20911058;28;20045;-72
2021/06/04 14:15:42;;;;;;;5.43;2.63;;;;;;;25.09;55.94;100593.63;20909528;28;20045;-73
2021/06/04 14:25:44;;;;;;;6.20;3.20;;;;;;;25.36;55.64;100595.84;20991274;28;20049;-73
2021/06/04 14:35:46;;;;;;;6.32;3.33;;;;;;;25.69;54.41;100579.66;20990398;28;20563;-73
2021/06/04 14:45:49;;;;;;;10.82;7.40;;;;;;;26.09;55.19;100549.88;20988880;28;20048;-73
2021/06/04 14:55:51;;;;;;;35.90;27.80;;;;;;;26.97;53.09;100544.69;20950958;28;20049;-73
2021/06/04 15:05:53;;;;;;;7.20;3.80;;;;;;;26.62;52.55;100521.22;20916673;28;20246;-73
2021/06/04 15:15:56;;;;;;;7.45;3.90;;;;;;;26.50;53.35;100510.13;20905170;28;20469;-73
2021/06/04 15:25:59;;;;;;;;;;;;;;;26.60;55.49;100504.47;20987620;28;20049;-73
2021/06/04 15:36:02;;;;;;;8.35;4.28;;;;;;;26.46;57.55;100513.34;20988421;28;19920;-73
2021/06/04 15:46:04;;;;;;;7.20;4.07;;;;;;;26.99;55.76;100510.44;20984921;28;20051;-73
2021/06/04 15:56:06;;;;;;;4.95;2.78;;;;;;;27.14;51.51;100511.25;21013601;22;20132;-71
2021/06/04 16:06:16;;;;;;;5.90;2.67;;;;;;;27.68;48.82;100505.50;20991520;28;20048;-71
2021/06/04 16:16:18;;;;;;;6.30;2.33;;;;;;;27.56;49.18;100496.25;20999468;28;20048;-72
2021/06/04 16:26:23;;;;;;;6.83;3.37;;;;;;;27.88;47.98;100479.63;20958805;28;20422;-72
2021/06/04 16:36:26;;;;;;;6.65;2.90;;;;;;;28.15;47.97;100471.78;20915392;28;20087;-72
2021/06/04 16:46:28;;;;;;;6.23;3.17;;;;;;;27.48;50.16;100469.47;20916029;28;20045;-72
2021/06/04 16:56:30;;;;;;;6.33;2.73;;;;;;;26.78;52.03;100475.38;20938296;28;20103;-73
2021/06/04 17:06:32;;;;;;;6.75;3.20;;;;;;;26.66;52.60;100477.72;20930562;28;20119;-72
2021/06/04 17:16:34;;;;;;;5.97;3.53;;;;;;;26.33;52.17;100477.22;20945594;28;20077;-72
2021/06/04 17:26:36;;;;;;;6.30;3.40;;;;;;;26.37;53.32;100466.94;20982935;28;20405;-72
2021/06/04 17:36:40;;;;;;;7.20;3.17;;;;;;;26.31;54.60;100465.81;20687795;28;20517;-72
2021/06/04 17:46:43;;;;;;;5.32;3.22;;;;;;;25.76;56.23;100468.81;20551412;28;20045;-72
2021/06/04 17:56:44;;;;;;;25.95;20.77;;;;;;;25.17;58.39;100467.66;20551955;28;20043;-71
2021/06/04 18:06:46;;;;;;;7.40;3.08;;;;;;;24.86;59.89;100461.41;20546676;28;20042;-72
2021/06/04 18:16:48;;;;;;;5.82;3.00;;;;;;;24.64;61.19;100487.91;20553681;28;20158;-71
2021/06/04 18:26:50;;;;;;;8.00;3.50;;;;;;;24.54;61.53;100497.97;20545461;28;20069;-72
2021/06/04 18:36:54;;;;;;;11.10;6.75;;;;;;;24.31;62.03;100502.38;20552208;28;20130;-72
2021/06/04 18:46:59;;;;;;;6.72;3.13;;;;;;;24.23;62.19;100489.84;20552617;28;20165;-71
2021/06/04 18:57:01;;;;;;;7.72;3.25;;;;;;;24.17;63.15;100495.88;20551099;28;20187;-71
2021/06/04 19:07:04;;;;;;;6.00;3.50;;;;;;;23.97;64.31;100486.50;20823066;28;20167;-72
2021/06/04 19:17:06;;;;;;;5.43;3.50;;;;;;;23.64;66.41;100476.78;20944545;28;20126;-72
2021/06/04 19:27:10;;;;;;;9.13;4.22;;;;;;;23.35;71.10;100485.22;20941297;28;20044;-72
2021/06/04 19:37:12;;;;;;;;;;;;;;;22.66;76.10;100496.91;20942008;28;20040;-71
2021/06/04 19:47:14;;;;;;;8.63;4.22;;;;;;;22.25;76.15;100551.00;20940693;28;20014;-72
2021/06/04 19:57:16;;;;;;;6.50;2.95;;;;;;;22.18;68.69;100566.75;20942646;28;20060;-71
2021/06/04 20:07:17;;;;;;;4.28;2.30;;;;;;;21.95;65.70;100574.38;20649353;28;20528;-71
2021/06/04 20:17:24;;;;;;;4.90;1.85;;;;;;;21.62;65.60;100583.00;20546795;28;20051;-71
2021/06/04 20:27:26;;;;;;;4.25;1.70;;;;;;;21.36;66.40;100605.97;20562908;28;20047;-71
2021/06/04 20:37:27;;;;;;;5.03;2.30;;;;;;;21.26;68.43;100617.53;20566878;28;20038;-72
2021/06/04 20:47:29;;;;;;;5.10;2.92;;;;;;;21.16;74.01;100640.69;20575577;28;20179;-71
2021/06/04 20:57:31;;;;;;;4.82;2.92;;;;;;;21.17;82.88;100666.31;20785557;28;20048;-70
2021/06/04 21:07:33;;;;;;;5.05;2.30;;;;;;;20.86;81.97;100673.63;20912849;28;20045;-71
2021/06/04 21:17:35;;;;;;;6.13;3.17;;;;;;;20.72;84.56;100681.22;20912896;28;20057;-71
2021/06/04 21:27:38;;;;;;;5.18;3.05;;;;;;;20.48;90.23;100677.16;20984819;28;20044;-69
2021/06/04 21:37:41;;;;;;;6.32;3.15;;;;;;;20.07;94.13;100661.41;20992982;28;20052;-71
2021/06/04 21:47:43;;;;;;;7.75;2.95;;;;;;;19.31;96.32;100654.84;20993013;28;20049;-71
2021/06/04 21:57:45;;;;;;;5.03;2.55;;;;;;;19.36;93.43;100668.56;20975518;23;20072;-72
2021/06/04 22:07:47;;;;;;;4.97;2.17;;;;;;;19.35;90.84;100696.06;20930641;28;20041;-72
2021/06/04 22:17:49;;;;;;;4.88;2.10;;;;;;;19.37;87.03;100709.22;20981762;28;20056;-73
2021/06/04 22:27:52;;;;;;;4.30;2.17;;;;;;;19.40;92.19;100735.53;20989704;28;20041;-73
2021/06/04 22:37:54;;;;;;;6.15;4.03;;;;;;;19.08;97.83;100715.22;20650796;28;20101;-72
2021/06/04 22:47:56;;;;;;;6.57;3.47;;;;;;;18.88;100.00;100749.69;20568762;28;20108;-73
2021/06/04 22:57:58;;;;;;;8.07;4.18;;;;;;;18.71;100.00;100717.44;20567571;28;20058;-72
2021/06/04 23:08:02;;;;;;;6.53;4.50;;;;;;;18.61;100.00;100708.56;20873675;28;20089;-73
2021/06/04 23:18:05;;;;;;;5.53;3.92;;;;;;;18.54;100.00;100712.69;20986514;28;20114;-72
2021/06/04 23:28:07;;;;;;;9.60;4.40;;;;;;;18.51;100.00;100710.28;20985534;28;20072;-73
2021/06/04 23:38:09;;;;;;;8.43;5.00;;;;;;;18.47;100.00;100698.25;20632345;28;20047;-72
2021/06/04 23:48:11;;;;;;;7.68;4.90;;;;;;;18.39;100.00;100690.06;20564541;28;20051;-73
2021/06/04 23:58:13;;;;;;;7.82;4.40;;;;;;;18.30;100.00;100666.97;20564288;28;20043;-72
